Date,TemperatureHighF,TemperatureAvgF,TemperatureLowF,DewpointHighF,DewpointAvgF,DewpointLowF,HumidityHigh,HumidityAvg,HumidityLow,PressureMaxIn,PressureMinIn,WindSpeedMaxMPH,WindSpeedAvgMPH,GustSpeedMaxMPH,PrecipitationSumIn
2013-5-1,75.6,69.6,62.9,71.5,66.8,60.8,94,91,84,29.86,29.76,3,0,12,2.45
2013-5-2,71.6,66.3,62.9,68.2,64.4,61.1,96,94,88,29.88,29.78,1,0,12,1.64
2013-5-3,72.3,63.9,49.6,67.3,61.4,47.1,96,92,83,29.86,29.72,13,2,21,0.20
2013-5-4,68.1,56.1,45.7,47.3,41.7,34.0,92,63,31,29.87,29.77,14,6,24,0.00
2013-5-5,66.3,58.2,50.1,57.4,45.7,40.1,91,65,43,29.91,29.75,12,4,21,0.00
2013-5-6,70.3,60.3,50.2,53.5,48.8,43.1,84,67,49,29.92,29.81,8,2,17,0.00
2013-5-7,75.3,64.5,53.3,59.5,55.2,49.8,90,73,53,29.94,29.86,5,1,12,0.00
2013-5-8,78.8,68.5,58.7,65.8,60.7,54.8,92,77,57,30.01,29.91,2,0,12,0.00
2013-5-9,80.3,69.7,59.2,69.2,61.7,56.0,91,77,51,30.05,29.95,1,0,12,0.00
2013-5-10,74.4,68.8,64.8,66.9,64.4,60.7,91,86,74,30.04,29.81,7,1,12,0.32
2013-5-11,75.1,68.2,62.9,68.9,64.6,60.2,94,88,81,29.96,29.86,3,0,12,0.17
2013-5-12,76.8,70.2,63.4,64.7,59.0,53.6,91,70,49,30.03,29.90,7,2,13,0.00
2013-5-13,78.6,66.2,55.0,53.4,47.3,38.6,76,53,28,30.18,30.03,7,1,12,0.00
2013-5-14,81.1,68.2,55.0,60.9,55.5,50.7,88,66,38,30.19,30.07,2,0,12,0.00
2013-5-15,83.6,70.2,58.4,65.6,57.1,50.3,90,66,35,30.12,29.95,2,0,12,0.00
2013-5-16,80.3,73.1,65.6,70.5,65.9,59.6,88,79,67,29.96,29.89,2,0,12,0.00
2013-5-17,82.2,75.3,69.6,73.7,69.7,65.3,90,83,74,29.96,29.89,2,0,12,0.00
2013-5-18,85.3,77.7,72.8,74.1,70.5,67.7,90,79,63,29.98,29.91,3,0,12,0.00
2013-5-19,82.6,76.4,70.4,74.3,70.8,67.3,92,83,74,29.95,29.90,1,0,12,0.00
2013-5-20,86.1,77.7,70.3,75.5,70.5,67.2,92,79,62,29.95,29.87,2,0,12,0.01
2013-5-21,84.7,77.2,69.6,74.3,70.1,66.5,92,79,62,29.90,29.79,2,0,12,0.00
2013-5-22,84.0,75.5,70.1,72.5,68.0,64.8,91,78,58,29.95,29.80,14,1,19,0.03
2013-5-23,90.1,78.4,67.9,73.5,68.8,64.2,89,74,54,29.95,29.84,4,0,12,0.00
2013-5-24,86.5,79.0,71.6,70.4,65.2,56.8,87,65,44,30.06,29.92,9,2,13,0.00
2013-5-25,86.5,74.3,65.2,62.6,56.2,49.6,79,55,31,30.14,30.04,2,0,12,0.00
2013-5-26,84.7,75.0,64.7,68.7,64.0,59.6,88,70,46,30.11,30.03,2,0,12,0.00
2013-5-27,83.4,76.5,69.4,71.6,67.1,63.3,89,74,57,30.07,29.98,2,0,12,0.00
2013-5-28,84.5,74.9,64.0,72.3,67.3,60.4,90,78,64,30.00,29.94,2,0,12,0.01
2013-5-29,84.5,78.6,73.0,74.8,71.2,68.4,89,79,67,29.96,29.90,3,0,12,0.00
2013-5-30,85.3,79.4,75.4,73.9,71.6,69.3,86,77,65,29.97,29.90,3,0,12,0.01
2013-5-31,84.9,80.2,76.7,74.6,72.2,70.1,83,77,69,29.95,29.88,3,0,12,0.00